Time;durP1;ratioP1;P1;durP2;ratioP2;P2;SDS_P1;SDS_P2;PMS_P1;PMS_P2;Temp;Humidity;BMP_temperature;BMP_pressure;BME280_temperature;BME280_humidity;BME280_pressure;Samples;Min_cycle;Max_cycle;Signal;HPM_P1;HPM_P2
2021/08/14 00:00:18;;;;;;;39.83;11.60;;;;;;;11.76;100.00;100116.03;1697880;84;20917;-63
2021/08/14 00:02:45;;;;;;;32.03;11.53;;;;;;;11.69;100.00;100118.08;1697793;84;20937;-63
2021/08/14 00:05:11;;;;;;;28.00;10.38;;;;;;;11.62;100.00;100116.09;1697656;84;20981;-64
2021/08/14 00:07:40;;;;;;;31.57;10.85;;;;;;;11.51;100.00;100113.76;1697664;83;20917;-64
2021/08/14 00:10:07;;;;;;;24.67;10.60;;;;;;;11.46;100.00;100116.38;1697539;84;20928;-63
2021/08/14 00:12:34;;;;;;;16.93;9.03;;;;;;;11.52;100.00;100115.41;1678198;84;20845;-63
2021/08/14 00:15:03;;;;;;;22.98;9.83;;;;;;;11.66;100.00;100116.70;1697602;83;28142;-64
2021/08/14 00:17:31;;;;;;;21.93;9.48;;;;;;;11.66;100.00;100115.35;1697833;84;20874;-63
2021/08/14 00:19:58;;;;;;;23.32;9.58;;;;;;;11.57;100.00;100120.31;1697408;84;21853;-62
2021/08/14 00:22:26;;;;;;;25.95;10.10;;;;;;;11.50;100.00;100118.33;1697657;83;20969;-63
2021/08/14 00:24:53;;;;;;;19.30;9.58;;;;;;;11.45;100.00;100122.82;1697208;84;20961;-63
2021/08/14 00:27:19;;;;;;;16.10;9.98;;;;;;;11.36;100.00;100128.59;1697579;84;21024;-63
2021/08/14 00:29:46;;;;;;;16.05;9.73;;;;;;;11.33;100.00;100131.77;1697635;83;21340;-64
2021/08/14 00:32:12;;;;;;;15.60;8.98;;;;;;;11.26;100.00;100129.77;1697547;84;21117;-63
2021/08/14 00:34:40;;;;;;;15.50;8.63;;;;;;;11.21;100.00;100130.23;1697299;84;20961;-62
2021/08/14 00:37:07;;;;;;;19.70;9.08;;;;;;;11.23;100.00;100132.15;1697625;84;20913;-62
2021/08/14 00:39:35;;;;;;;15.28;8.88;;;;;;;11.24;100.00;100135.11;1697487;83;20939;-62
2021/08/14 00:42:03;;;;;;;14.15;9.28;;;;;;;11.23;100.00;100136.98;1697589;83;20925;-63
2021/08/14 00:44:33;;;;;;;15.45;9.93;;;;;;;11.25;100.00;100130.84;1698221;84;21862;-63
2021/08/14 00:47:03;;;;;;;13.10;8.18;;;;;;;11.25;100.00;100129.50;1697342;83;20960;-64
2021/08/14 00:49:31;;;;;;;11.73;8.55;;;;;;;11.20;100.00;100132.11;1697464;84;20973;-64
2021/08/14 00:51:57;;;;;;;21.00;9.40;;;;;;;11.15;100.00;100130.14;1697746;84;20842;-63
2021/08/14 00:54:25;;;;;;;16.05;9.00;;;;;;;11.10;100.00;100132.75;1697891;83;20873;-64
2021/08/14 00:56:52;;;;;;;17.50;9.05;;;;;;;11.06;100.00;100128.91;1697839;84;21137;-64
2021/08/14 00:59:19;;;;;;;14.25;8.68;;;;;;;11.04;100.00;100131.55;1697511;84;20834;-62
2021/08/14 01:01:45;;;;;;;16.65;9.58;;;;;;;11.00;100.00;100134.42;1697748;83;20873;-63
2021/08/14 01:04:14;;;;;;;14.45;8.43;;;;;;;10.93;100.00;100129.23;1697614;84;20886;-63
2021/08/14 01:06:41;;;;;;;14.93;8.85;;;;;;;10.88;100.00;100131.83;1697359;84;20965;-62
2021/08/14 01:09:09;;;;;;;;;;;;;;;10.87;100.00;100134.21;1700087;83;21787;-63
2021/08/14 01:11:37;;;;;;;16.00;9.38;;;;;;;10.93;100.00;100137.29;1697588;84;20081;-62
2021/08/14 01:14:06;;;;;;;16.62;9.55;;;;;;;10.97;100.00;100133.58;1697757;84;20897;-62
2021/08/14 01:16:33;;;;;;;15.10;9.08;;;;;;;10.97;100.00;100136.27;1697811;83;21013;-62
2021/08/14 01:18:59;;;;;;;20.02;10.63;;;;;;;10.92;100.00;100135.64;1697655;84;21011;-63
2021/08/14 01:21:26;;;;;;;16.65;10.13;;;;;;;10.85;100.00;100136.31;1697782;84;21151;-62
2021/08/14 01:23:54;;;;;;;13.38;9.83;;;;;;;10.80;100.00;100137.03;1697339;84;20968;-63
2021/08/14 01:26:21;;;;;;;22.55;10.48;;;;;;;10.75;100.00;100131.58;1697930;83;20969;-62
2021/08/14 01:28:47;;;;;;;18.85;10.58;;;;;;;10.66;100.00;100131.16;1697779;84;20897;-62
2021/08/14 01:31:14;;;;;;;17.62;10.05;;;;;;;10.58;100.00;100130.72;1697531;84;21000;-64
2021/08/14 01:33:43;;;;;;;19.60;10.65;;;;;;;10.49;100.00;100125.74;1697785;83;21147;-63
2021/08/14 01:36:17;;;;;;;18.42;10.82;;;;;;;10.48;100.00;100127.31;1698113;83;21012;-64
2021/08/14 01:38:54;;;;;;;19.40;11.38;;;;;;;10.53;100.00;100122.57;1697717;83;20910;-63
2021/08/14 01:41:21;;;;;;;20.08;11.15;;;;;;;10.56;100.00;100126.11;1697757;84;21361;-62
2021/08/14 01:43:56;;;;;;;19.27;11.33;;;;;;;10.55;100.00;100127.18;1697540;83;20917;-63
2021/08/14 01:46:23;;;;;;;23.12;12.33;;;;;;;10.54;100.00;100125.56;1697960;84;21130;-63
2021/08/14 01:48:49;;;;;;;20.12;12.23;;;;;;;10.53;100.00;100129.28;1697500;84;21036;-63
2021/08/14 01:51:16;;;;;;;15.38;10.40;;;;;;;10.48;100.00;100128.15;1697972;84;20858;-62
2021/08/14 01:53:53;;;;;;;22.90;11.12;;;;;;;10.46;100.00;100126.73;1697727;84;20882;-63
2021/08/14 01:56:21;;;;;;;21.62;11.90;;;;;;;10.46;100.00;100124.88;1697871;84;20940;-62
2021/08/14 01:58:48;;;;;;;17.48;10.03;;;;;;;10.47;100.00;100133.21;1697766;84;21220;-62
2021/08/14 02:01:15;;;;;;;21.07;11.00;;;;;;;10.46;100.00;100129.41;1697932;84;20870;-63
2021/08/14 02:03:44;;;;;;;20.40;10.58;;;;;;;10.40;100.00;100125.83;1697713;84;20988;-62
2021/08/14 02:06:10;;;;;;;25.77;11.48;;;;;;;10.34;100.00;100118.74;1698027;84;20925;-63
2021/08/14 02:08:38;;;;;;;20.25;11.22;;;;;;;10.30;100.00;100122.41;1698053;84;20842;-62
2021/08/14 02:11:15;;;;;;;17.67;10.72;;;;;;;10.26;100.00;100117.22;1698016;84;21153;-62
2021/08/14 02:13:44;;;;;;;38.83;11.85;;;;;;;10.24;100.00;100121.16;1697526;83;20929;-62
2021/08/14 02:16:11;;;;;;;29.37;11.90;;;;;;;10.20;100.00;100112.79;1697958;84;21927;-62
2021/08/14 02:18:38;;;;;;;44.65;11.78;;;;;;;10.19;100.00;100116.54;1697651;84;21024;-62
2021/08/14 02:21:05;;;;;;;26.60;11.33;;;;;;;10.19;100.00;100121.06;1697970;84;20842;-62
2021/08/14 02:23:32;;;;;;;23.35;11.35;;;;;;;10.15;100.00;100119.93;1697728;84;21128;-62
2021/08/14 02:25:59;;;;;;;27.65;10.72;;;;;;;10.07;100.00;100125.95;1697522;84;20862;-62
2021/08/14 02:28:26;;;;;;;27.10;10.90;;;;;;;10.02;100.00;100127.19;1697453;84;21033;-63
2021/08/14 02:30:53;;;;;;;28.98;11.40;;;;;;;10.01;100.00;100123.38;1697424;84;20930;-63
2021/08/14 02:33:19;;;;;;;26.00;11.60;;;;;;;10.04;100.00;100125.59;1677884;84;20914;-62
2021/08/14 02:35:46;;;;;;;35.80;11.83;;;;;;;10.05;100.00;100124.02;1697887;84;21720;-62
2021/08/14 02:38:12;;;;;;;30.43;12.58;;;;;;;10.08;100.00;100129.44;1697274;83;20886;-63
2021/08/14 02:40:39;;;;;;;20.12;11.73;;;;;;;10.05;100.00;100128.58;1697659;84;20842;-64
2021/08/14 02:43:06;;;;;;;24.37;10.65;;;;;;;10.00;100.00;100128.47;1697655;84;20921;-63
2021/08/14 02:45:33;;;;;;;18.52;10.35;;;;;;;9.96;100.00;100126.77;1697673;83;20985;-63
2021/08/14 02:48:00;;;;;;;19.25;10.05;;;;;;;9.98;100.00;100127.36;1697699;84;21121;-62
2021/08/14 02:50:28;;;;;;;18.37;10.63;;;;;;;10.01;100.00;100126.06;1697758;84;20898;-63
2021/08/14 02:52:56;;;;;;;19.67;10.48;;;;;;;10.01;100.00;100136.27;1697976;84;20930;-63
2021/08/14 02:55:24;;;;;;;25.27;11.33;;;;;;;10.03;100.00;100130.67;1697498;84;20953;-63
2021/08/14 02:57:52;;;;;;;18.62;10.30;;;;;;;10.04;100.00;100125.09;1677582;83;20921;-63
2021/08/14 03:00:20;;;;;;;29.35;11.03;;;;;;;10.06;100.00;100128.33;1697608;84;21148;-63
2021/08/14 03:02:46;;;;;;;14.80;10.05;;;;;;;10.06;100.00;100131.53;1697747;84;20914;-63
2021/08/14 03:05:13;;;;;;;16.97;10.30;;;;;;;10.00;100.00;100131.97;1697756;83;20917;-63
2021/08/14 03:07:39;;;;;;;15.98;10.45;;;;;;;9.98;100.00;100129.23;1697759;84;20984;-63
2021/08/14 03:10:08;;;;;;;21.75;11.40;;;;;;;9.96;100.00;100128.11;1698019;83;20842;-62
2021/08/14 03:12:36;;;;;;;25.90;11.83;;;;;;;9.93;100.00;100130.46;1697647;84;21314;-63
2021/08/14 03:15:06;;;;;;;23.00;10.75;;;;;;;9.91;100.00;100129.34;1697845;84;21415;-64
2021/08/14 03:17:32;;;;;;;22.55;9.58;;;;;;;9.93;100.00;100128.59;1697748;84;20964;-63
2021/08/14 03:20:01;;;;;;;19.10;10.70;;;;;;;9.99;100.00;100127.63;1697774;84;20885;-63
2021/08/14 03:22:27;;;;;;;21.48;12.40;;;;;;;10.11;100.00;100132.98;1697459;83;25268;-64
2021/08/14 03:24:55;;;;;;;23.95;11.03;;;;;;;10.22;100.00;100123.30;1697425;83;20988;-63
2021/08/14 03:27:23;;;;;;;26.95;10.82;;;;;;;10.29;100.00;100125.35;1697557;84;21008;-63
2021/08/14 03:29:50;;;;;;;20.12;9.88;;;;;;;10.43;100.00;100119.16;1698196;83;21008;-64
2021/08/14 03:32:16;;;;;;;25.85;11.40;;;;;;;10.53;100.00;100123.91;1697778;84;20881;-63
2021/08/14 03:34:43;;;;;;;19.10;10.30;;;;;;;10.64;100.00;100134.61;1697704;84;20945;-63
2021/08/14 03:37:09;;;;;;;28.05;10.00;;;;;;;10.83;100.00;100137.92;1697405;84;21185;-63
2021/08/14 03:39:36;;;;;;;19.35;9.58;;;;;;;10.99;100.00;100132.28;1697749;83;20874;-63
2021/08/14 03:42:04;;;;;;;18.23;9.05;;;;;;;11.10;100.00;100131.41;1697570;84;20909;-62
2021/08/14 03:44:30;;;;;;;19.52;10.43;;;;;;;11.19;100.00;100126.97;1697898;83;21431;-62
2021/08/14 03:46:57;;;;;;;21.23;9.45;;;;;;;11.28;100.00;100130.88;1697742;84;20814;-63
2021/08/14 03:49:25;;;;;;;17.20;8.88;;;;;;;11.42;100.00;100139.45;1697794;84;21479;-64
2021/08/14 03:51:52;;;;;;;18.60;9.78;;;;;;;11.59;100.00;100137.56;1697650;83;20933;-65
2021/08/14 03:54:18;;;;;;;22.87;9.53;;;;;;;11.78;100.00;100137.58;1697942;84;20905;-63
2021/08/14 03:56:46;;;;;;;16.40;8.63;;;;;;;11.93;100.00;100138.35;1697758;83;20890;-64
2021/08/14 03:59:13;;;;;;;17.20;9.40;;;;;;;12.11;100.00;100141.80;1697529;84;20922;-63
2021/08/14 04:01:39;;;;;;;16.37;8.08;;;;;;;12.28;100.00;100138.52;1697734;83;21746;-63
2021/08/14 04:04:06;;;;;;;25.88;8.73;;;;;;;12.48;100.00;100138.48;1697591;83;20881;-63
2021/08/14 04:06:33;;;;;;;19.95;8.13;;;;;;;12.62;100.00;100135.69;1697393;83;20941;-63
2021/08/14 04:09:00;;;;;;;12.28;8.33;;;;;;;12.75;100.00;100134.47;1697506;83;21013;-61
2021/08/14 04:11:26;;;;;;;19.60;7.92;;;;;;;12.91;100.00;100132.72;1697584;84;21341;-60
2021/08/14 04:13:53;;;;;;;14.87;7.53;;;;;;;13.09;100.00;100134.52;1697757;84;21407;-60
2021/08/14 04:16:20;;;;;;;13.68;7.72;;;;;;;13.28;100.00;100140.38;1697797;84;20953;-60
2021/08/14 04:18:46;;;;;;;12.68;6.97;;;;;;;13.51;100.00;100145.94;1697859;83;20980;-61
2021/08/14 04:21:14;;;;;;;15.63;7.90;;;;;;;13.71;100.00;100142.56;1697749;84;20980;-62
2021/08/14 04:23:42;;;;;;;16.62;6.40;;;;;;;13.93;100.00;100145.67;1698022;83;26861;-62
2021/08/14 04:26:10;;;;;;;9.60;6.42;;;;;;;14.14;100.00;100152.00;1697936;83;21213;-62
2021/08/14 04:31:42;;;;;;;16.35;6.62;;;;;;;14.51;100.00;100157.28;1650434;87;21509;-63
2021/08/14 04:34:09;;;;;;;10.90;6.05;;;;;;;14.63;100.00;100161.69;1650389;87;20940;-63
2021/08/14 04:36:37;;;;;;;10.20;6.37;;;;;;;14.67;100.00;100166.27;1650689;87;20980;-64
2021/08/14 04:39:03;;;;;;;10.58;6.65;;;;;;;14.69;100.00;100162.77;1650648;87;21119;-63
2021/08/14 04:41:30;;;;;;;10.20;6.50;;;;;;;14.75;100.00;100167.11;1650452;87;21138;-62
2021/08/14 04:43:56;;;;;;;13.03;6.22;;;;;;;14.88;100.00;100170.39;1650781;86;20952;-62
2021/08/14 04:46:23;;;;;;;13.32;6.42;;;;;;;15.09;100.00;100174.76;1650449;86;20900;-62
2021/08/14 04:48:50;;;;;;;7.83;5.83;;;;;;;15.32;100.00;100173.41;1650506;87;21111;-63
2021/08/14 04:51:16;;;;;;;9.70;6.25;;;;;;;15.60;100.00;100176.09;1644196;85;21104;-62
2021/08/14 04:53:45;;;;;;;11.25;5.65;;;;;;;15.90;100.00;100171.78;1642681;86;20908;-63
2021/08/14 04:56:11;;;;;;;18.75;6.42;;;;;;;16.33;100.00;100168.67;1614508;86;20991;-64
2021/08/14 04:58:38;;;;;;;10.00;5.80;;;;;;;16.68;100.00;100169.88;1656121;85;20925;-63
2021/08/14 05:01:05;;;;;;;8.95;5.60;;;;;;;17.13;100.00;100172.06;1653032;86;20921;-63
2021/08/14 05:03:31;;;;;;;12.70;5.75;;;;;;;17.53;100.00;100178.25;1652971;86;21153;-63
2021/08/14 05:05:58;;;;;;;10.95;6.10;;;;;;;17.81;100.00;100177.76;1652937;86;20932;-63
2021/08/14 05:08:24;;;;;;;9.20;6.03;;;;;;;17.97;100.00;100177.33;1647157;84;20987;-63
2021/08/14 05:10:52;;;;;;;9.88;6.05;;;;;;;18.18;100.00;100177.92;1675516;84;20894;-64
2021/08/14 05:13:19;;;;;;;12.58;5.80;;;;;;;18.57;100.00;100182.87;1680406;85;20921;-63
2021/08/14 05:15:46;;;;;;;11.40;5.65;;;;;;;18.85;100.00;100178.47;1680914;85;21131;-62
2021/08/14 05:18:17;;;;;;;11.40;5.70;;;;;;;19.15;100.00;100186.72;1682111;85;20946;-62
2021/08/14 05:20:45;;;;;;;17.70;4.70;;;;;;;19.36;100.00;100185.86;1700283;84;21366;-62
2021/08/14 05:23:13;;;;;;;11.97;5.17;;;;;;;19.63;100.00;100183.78;1700199;84;21453;-63
2021/08/14 05:25:41;;;;;;;16.62;5.12;;;;;;;19.89;99.97;100188.27;1700199;82;20948;-64
2021/08/14 05:28:08;;;;;;;9.65;5.00;;;;;;;20.14;99.14;100191.62;1712472;81;21172;-63
2021/08/14 05:30:34;;;;;;;11.93;5.65;;;;;;;20.43;98.51;100194.58;1752573;81;20964;-64
2021/08/14 05:33:01;;;;;;;12.55;5.72;;;;;;;20.46;98.09;100192.63;1754104;81;20962;-64
2021/08/14 05:35:29;;;;;;;16.77;5.33;;;;;;;20.45;96.59;100193.72;1759787;81;20916;-65
2021/08/14 05:37:56;;;;;;;14.38;4.92;;;;;;;20.46;94.30;100202.17;1720431;83;20854;-64
2021/08/14 05:40:24;;;;;;;8.70;4.78;;;;;;;20.58;90.89;100203.86;1759650;81;20956;-63
2021/08/14 05:42:51;;;;;;;16.62;4.62;;;;;;;20.94;90.46;100198.97;1706873;83;20924;-64
2021/08/14 05:45:18;;;;;;;16.52;5.60;;;;;;;21.28;85.49;100190.27;1718528;83;20905;-65
2021/08/14 05:47:46;;;;;;;9.40;4.22;;;;;;;21.58;88.66;100192.85;1718634;82;20865;-64
2021/08/14 05:50:13;;;;;;;21.42;5.17;;;;;;;21.78;85.89;100193.45;1715980;82;20985;-64
2021/08/14 05:52:39;;;;;;;11.38;4.90;;;;;;;21.84;86.91;100183.98;1715377;82;21111;-64
2021/08/14 05:55:08;;;;;;;7.87;4.10;;;;;;;21.91;85.23;100189.02;1716586;82;20953;-65
2021/08/14 05:57:34;;;;;;;;;;;;;;;22.08;80.11;100192.39;1718351;82;21455;-65
2021/08/14 06:00:00;;;;;;;12.78;4.40;;;;;;;22.38;76.69;100192.91;1716093;83;20150;-65
2021/08/14 06:02:30;;;;;;;10.18;3.70;;;;;;;22.59;72.60;100194.51;1711978;83;21450;-63
2021/08/14 06:04:58;;;;;;;17.07;4.83;;;;;;;22.55;71.96;100194.09;1700327;83;21113;-66
2021/08/14 06:07:24;;;;;;;17.82;5.22;;;;;;;22.58;71.17;100191.52;1692876;83;21466;-64
2021/08/14 06:09:52;;;;;;;15.75;4.50;;;;;;;22.54;71.48;100195.20;1675359;85;20983;-64
2021/08/14 06:12:20;;;;;;;;;;;;;;;22.70;71.19;100195.00;1682564;83;20997;-63
2021/08/14 06:14:49;;;;;;;19.62;6.45;;;;;;;22.94;70.28;100194.55;1712485;83;20117;-61
2021/08/14 06:17:16;;;;;;;19.50;9.05;;;;;;;22.94;69.46;100194.55;1718416;82;21079;-61
2021/08/14 06:19:43;;;;;;;26.20;10.82;;;;;;;23.16;68.22;100194.99;1718337;82;20877;-61
2021/08/14 06:22:09;;;;;;;21.23;9.33;;;;;;;23.62;67.70;100200.34;1718539;83;20913;-64
2021/08/14 06:24:36;;;;;;;11.83;6.22;;;;;;;23.99;67.09;100202.13;1718122;82;20938;-64
2021/08/14 06:27:04;;;;;;;7.83;3.80;;;;;;;23.90;63.41;100195.86;1705652;82;21459;-64
2021/08/14 06:29:30;;;;;;;9.93;3.47;;;;;;;23.82;60.89;100197.50;1703181;83;21676;-63
2021/08/14 06:31:57;;;;;;;8.28;3.33;;;;;;;23.90;56.77;100193.92;1679043;84;21510;-62
2021/08/14 06:34:23;;;;;;;7.37;3.53;;;;;;;24.22;54.98;100199.92;1694701;83;20985;-61
2021/08/14 06:36:50;;;;;;;5.95;3.58;;;;;;;24.34;55.02;100204.72;1699787;83;21294;-62
2021/08/14 06:39:16;;;;;;;8.05;2.60;;;;;;;24.73;52.61;100200.01;1681992;83;20940;-61
2021/08/14 06:41:43;;;;;;;7.35;3.70;;;;;;;25.01;50.04;100205.23;1680809;83;21496;-63
2021/08/14 06:44:09;;;;;;;14.05;4.25;;;;;;;25.06;50.92;100197.91;1703623;83;20930;-62
2021/08/14 06:46:36;;;;;;;6.08;3.47;;;;;;;25.08;51.60;100203.87;1703434;84;20839;-62
2021/08/14 06:49:03;;;;;;;9.40;3.08;;;;;;;25.07;49.86;100192.09;1703203;84;21029;-62
2021/08/14 06:51:30;;;;;;;;;;;;;;;25.13;49.61;100198.17;1705665;84;20961;-63
2021/08/14 06:53:59;;;;;;;;;;;;;;;24.79;50.57;100190.42;1706310;84;21112;-64
2021/08/14 06:56:26;;;;;;;3.85;2.90;;;;;;;25.12;49.79;100188.34;1703022;84;20415;-63
2021/08/14 06:58:53;;;;;;;6.28;3.00;;;;;;;25.48;50.06;100195.96;1703104;84;20997;-63
2021/08/14 07:01:19;;;;;;;5.75;2.95;;;;;;;25.57;46.91;100201.35;1702490;84;21026;-62
2021/08/14 07:03:47;;;;;;;4.70;3.05;;;;;;;25.58;46.30;100200.23;1703453;84;27259;-62
2021/08/14 07:06:21;;;;;;;6.08;2.58;;;;;;;25.48;46.65;100197.34;1702951;83;21799;-62
2021/08/14 07:08:47;;;;;;;6.42;2.92;;;;;;;25.71;46.78;100193.61;1703687;84;21519;-64
2021/08/14 07:11:16;;;;;;;6.87;2.98;;;;;;;26.04;45.81;100190.84;1703458;84;20934;-65
2021/08/14 07:13:43;;;;;;;5.70;2.90;;;;;;;26.03;44.18;100193.34;1703697;83;20977;-65
2021/08/14 07:16:09;;;;;;;3.12;2.45;;;;;;;26.01;43.74;100189.33;1703704;84;20985;-65
2021/08/14 07:18:38;;;;;;;6.25;2.60;;;;;;;25.98;43.40;100192.20;1703539;84;21413;-64
2021/08/14 07:21:04;;;;;;;8.90;3.15;;;;;;;26.18;46.11;100197.95;1702604;83;20888;-64
2021/08/14 07:23:31;;;;;;;8.25;2.58;;;;;;;26.01;46.70;100184.62;1684918;83;21023;-64
2021/08/14 07:25:58;;;;;;;4.67;2.60;;;;;;;26.07;45.41;100187.40;1694712;83;20984;-63
2021/08/14 07:28:24;;;;;;;6.50;2.72;;;;;;;25.93;47.06;100184.75;1719298;83;21079;-64
2021/08/14 07:30:51;;;;;;;4.20;2.33;;;;;;;25.93;45.87;100186.13;1703380;84;21085;-61
2021/08/14 07:33:17;;;;;;;3.92;1.98;;;;;;;26.22;44.19;100188.66;1703724;84;20867;-61
2021/08/14 07:35:44;;;;;;;5.97;2.55;;;;;;;26.26;41.83;100179.97;1686459;83;20942;-62
2021/08/14 07:38:12;;;;;;;7.22;2.30;;;;;;;26.21;41.18;100182.95;1681782;84;20975;-66
2021/08/14 07:40:38;;;;;;;4.62;2.20;;;;;;;26.00;41.53;100171.23;1699384;84;21450;-63
2021/08/14 07:43:07;;;;;;;4.40;2.10;;;;;;;26.14;41.83;100178.59;1703770;83;21082;-66
2021/08/14 07:45:41;;;;;;;5.67;1.95;;;;;;;26.31;40.71;100172.02;1701968;84;21067;-64
2021/08/14 07:48:21;;;;;;;6.50;2.35;;;;;;;26.13;44.89;100165.16;1703334;83;20973;-64
2021/08/14 07:50:48;;;;;;;9.68;2.42;;;;;;;26.39;41.91;100168.37;1701518;84;21043;-65
2021/08/14 07:53:14;;;;;;;6.05;2.00;;;;;;;26.72;39.80;100172.93;1685165;83;20996;-63
2021/08/14 07:55:41;;;;;;;3.73;1.40;;;;;;;26.81;40.50;100169.47;1694413;84;21683;-63
2021/08/14 07:58:11;;;;;;;2.60;1.60;;;;;;;26.73;40.57;100162.16;1727696;82;20939;-62
2021/08/14 08:00:39;;;;;;;6.12;2.33;;;;;;;26.78;41.08;100167.97;1743617;82;20942;-63
2021/08/14 08:03:10;;;;;;;7.12;1.80;;;;;;;26.96;40.62;100165.18;1743842;82;21386;-62
2021/08/14 08:05:37;;;;;;;7.35;2.02;;;;;;;26.92;39.64;100168.40;1743219;82;20919;-63
2021/08/14 08:08:06;;;;;;;6.20;2.15;;;;;;;26.70;38.97;100162.83;1743146;82;21140;-62
2021/08/14 08:10:33;;;;;;;3.77;2.10;;;;;;;26.36;39.94;100164.11;1742876;81;20967;-61
2021/08/14 08:12:59;;;;;;;5.72;1.92;;;;;;;26.47;41.17;100155.05;1743439;81;21342;-62
2021/08/14 08:15:26;;;;;;;4.62;2.40;;;;;;;26.63;40.79;100152.98;1740447;82;21095;-63
2021/08/14 08:17:54;;;;;;;9.28;2.58;;;;;;;26.33;39.86;100163.44;1713674;83;20996;-62
2021/08/14 08:20:21;;;;;;;4.58;2.95;;;;;;;26.50;41.16;100159.05;1713492;83;21306;-62
2021/08/14 08:22:47;;;;;;;5.12;2.40;;;;;;;26.61;40.78;100163.56;1713508;83;20960;-62
2021/08/14 08:25:15;;;;;;;4.83;2.20;;;;;;;26.53;40.61;100159.77;1713183;83;20948;-62
2021/08/14 08:27:44;;;;;;;;;;;;;;;26.60;39.49;100157.81;1695929;83;21533;-61
2021/08/14 08:30:12;;;;;;;18.80;2.42;;;;;;;26.52;40.22;100158.14;1726375;83;20180;-62
2021/08/14 08:32:39;;;;;;;6.97;2.17;;;;;;;26.35;41.47;100151.52;1729351;83;21418;-62
2021/08/14 08:35:09;;;;;;;5.22;2.40;;;;;;;26.56;40.34;100145.91;1729143;83;20952;-61
2021/08/14 08:37:35;;;;;;;3.40;2.00;;;;;;;26.96;39.20;100150.61;1728826;83;21074;-62
2021/08/14 08:40:03;;;;;;;2.60;2.23;;;;;;;27.48;39.31;100151.09;1727367;83;21261;-61
2021/08/14 08:42:29;;;;;;;5.87;1.92;;;;;;;27.67;39.51;100148.44;1725201;81;21124;-62
2021/08/14 08:44:58;;;;;;;5.60;2.47;;;;;;;27.58;38.56;100150.56;1720020;83;21103;-61
2021/08/14 08:47:25;;;;;;;4.75;2.20;;;;;;;27.07;38.31;100151.15;1693583;83;21520;-63
2021/08/14 08:49:54;;;;;;;4.47;2.10;;;;;;;26.65;39.31;100147.35;1720672;83;21015;-62
2021/08/14 08:52:21;;;;;;;2.15;1.92;;;;;;;26.69;41.10;100146.89;1720842;83;20952;-63
2021/08/14 08:54:48;;;;;;;3.60;2.60;;;;;;;26.98;39.13;100139.47;1715719;83;21097;-63
2021/08/14 08:57:16;;;;;;;6.95;2.33;;;;;;;26.85;38.13;100140.65;1678940;83;21220;-61
2021/08/14 08:59:45;;;;;;;3.67;2.35;;;;;;;26.80;38.93;100146.41;1678678;85;21042;-61
2021/08/14 09:02:28;;;;;;;4.33;2.17;;;;;;;27.11;38.38;100136.09;1679035;85;20970;-61
2021/08/14 09:05:11;;;;;;;4.10;2.27;;;;;;;26.95;37.50;100129.16;1685743;83;21065;-63
2021/08/14 09:07:38;;;;;;;5.15;1.77;;;;;;;26.94;37.97;100128.34;1689414;84;21219;-63
2021/08/14 09:10:07;;;;;;;3.20;2.00;;;;;;;26.95;37.14;100131.91;1677569;84;21160;-64
2021/08/14 09:12:39;;;;;;;3.35;1.98;;;;;;;27.14;38.34;100121.59;1677201;84;23012;-63
2021/08/14 09:15:08;;;;;;;3.83;1.85;;;;;;;27.20;36.38;100134.02;1698650;83;21080;-63
2021/08/14 09:17:36;;;;;;;7.90;2.15;;;;;;;26.85;36.84;100123.57;1721350;81;21475;-64
2021/08/14 09:20:15;;;;;;;4.30;1.97;;;;;;;26.99;37.01;100123.73;1738694;82;21038;-65
2021/08/14 09:23:05;;;;;;;5.25;2.08;;;;;;;27.25;36.70;100121.94;1720560;81;21088;-63
2021/08/14 09:25:41;;;;;;;14.18;2.12;;;;;;;27.51;35.77;100125.01;1748313;81;21022;-66
2021/08/14 09:28:08;;;;;;;4.55;2.08;;;;;;;27.69;36.66;100122.70;1725799;81;21084;-64
2021/08/14 09:30:57;;;;;;;4.65;2.12;;;;;;;27.98;35.78;100126.20;1727110;82;21174;-65
2021/08/14 09:33:28;;;;;;;2.15;1.50;;;;;;;28.25;36.30;100123.64;1727278;82;21687;-65
2021/08/14 09:36:02;;;;;;;5.10;2.05;;;;;;;28.42;35.61;100120.52;1721216;82;20978;-65
2021/08/14 09:38:44;;;;;;;3.22;1.90;;;;;;;28.33;34.77;100117.14;1725446;82;21012;-65
2021/08/14 09:41:17;;;;;;;3.70;1.95;;;;;;;27.81;36.52;100116.30;1727507;81;20967;-67
2021/08/14 09:43:45;;;;;;;14.30;3.10;;;;;;;27.71;37.76;100112.70;1727359;83;21087;-65
2021/08/14 09:46:11;;;;;;;3.83;1.87;;;;;;;27.93;36.20;100117.61;1721813;83;21104;-65
2021/08/14 09:48:38;;;;;;;;;;;;;;;28.34;36.80;100112.63;1719859;83;21068;-65
2021/08/14 09:51:07;;;;;;;3.37;1.62;;;;;;;28.07;35.28;100101.16;1716790;83;20462;-66
2021/08/14 09:53:34;;;;;;;6.35;2.05;;;;;;;27.60;36.02;100100.59;1718103;82;21078;-66
2021/08/14 09:56:11;;;;;;;6.20;2.00;;;;;;;27.02;37.32;100094.93;1710969;81;21094;-66
2021/08/14 09:58:40;;;;;;;3.20;1.92;;;;;;;27.35;37.32;100093.27;1729496;81;21051;-66
2021/08/14 10:01:07;;;;;;;2.55;1.80;;;;;;;27.48;37.20;100098.71;1727370;81;21169;-63
2021/08/14 10:03:35;;;;;;;5.42;1.77;;;;;;;27.39;36.86;100095.31;1744318;81;20989;-66
2021/08/14 10:06:02;;;;;;;6.65;1.85;;;;;;;27.65;37.32;100090.09;1737141;81;21047;-65
2021/08/14 10:08:31;;;;;;;2.75;1.67;;;;;;;28.06;35.87;100089.92;1717281;83;21558;-66
2021/08/14 10:10:59;;;;;;;2.27;1.67;;;;;;;28.20;36.15;100088.28;1721179;81;21136;-65
2021/08/14 10:13:29;;;;;;;4.85;1.82;;;;;;;27.97;35.74;100085.95;1712117;83;21724;-66
2021/08/14 10:15:56;;;;;;;8.25;2.00;;;;;;;28.08;35.78;100088.98;1707984;82;21019;-66
2021/08/14 10:18:22;;;;;;;3.17;1.90;;;;;;;28.47;36.32;100087.13;1728848;83;20875;-65
2021/08/14 10:20:48;;;;;;;1.60;1.50;;;;;;;28.67;35.79;100083.79;1729071;83;21399;-66
2021/08/14 10:23:21;;;;;;;4.57;1.90;;;;;;;29.16;33.89;100079.64;1684115;84;21410;-66
2021/08/14 10:25:48;;;;;;;5.15;1.90;;;;;;;29.14;33.39;100077.82;1728784;82;22128;-66
2021/08/14 10:28:16;;;;;;;;;;;;;;;28.70;34.17;100078.91;1730722;83;20927;-65
2021/08/14 10:30:50;;;;;;;11.85;2.25;;;;;;;28.63;34.56;100071.27;1728471;81;20163;-66
2021/08/14 10:33:33;;;;;;;5.67;2.02;;;;;;;28.61;36.49;100070.04;1728680;83;20993;-65
2021/08/14 10:36:03;;;;;;;3.72;1.50;;;;;;;28.40;36.35;100062.89;1728012;81;20963;-66
2021/08/14 10:38:42;;;;;;;2.47;1.57;;;;;;;28.04;36.23;100058.54;1698090;83;21088;-67
2021/08/14 10:41:08;;;;;;;6.00;1.67;;;;;;;27.56;36.21;100056.38;1729071;83;20830;-65
2021/08/14 10:43:57;;;;;;;2.05;1.70;;;;;;;27.74;35.36;100054.86;1729372;83;23389;-65
2021/08/14 10:46:48;;;;;;;8.23;1.80;;;;;;;27.88;35.35;100062.72;1712469;83;20926;-65
2021/08/14 10:49:21;;;;;;;5.40;1.40;;;;;;;28.26;34.87;100057.05;1698908;82;20970;-65
2021/08/14 10:51:54;;;;;;;3.75;1.32;;;;;;;28.23;34.50;100053.64;1672070;84;21148;-64
2021/08/14 10:54:35;;;;;;;2.30;1.60;;;;;;;28.13;34.21;100056.97;1698870;84;20866;-66
2021/08/14 10:57:09;;;;;;;3.75;1.95;;;;;;;28.27;34.22;100047.63;1717224;82;20871;-66
2021/08/14 10:59:42;;;;;;;3.25;1.70;;;;;;;28.46;34.00;100050.20;1722613;83;20920;-66
2021/08/14 11:02:15;;;;;;;2.02;1.52;;;;;;;28.59;33.28;100041.42;1722690;83;20942;-66
2021/08/14 11:05:00;;;;;;;1.75;1.10;;;;;;;28.48;33.38;100044.53;1722845;83;21103;-66
2021/08/14 11:07:31;;;;;;;3.83;1.62;;;;;;;27.91;32.29;100040.52;1729040;81;20908;-65
2021/08/14 11:10:10;;;;;;;3.17;1.85;;;;;;;28.16;32.07;100045.20;1729095;82;21388;-65
2021/08/14 11:12:48;;;;;;;1.82;1.60;;;;;;;28.42;32.33;100038.48;1729170;83;20968;-65
2021/08/14 11:15:32;;;;;;;2.00;1.60;;;;;;;28.46;32.68;100038.58;1728922;83;21348;-67
2021/08/14 11:18:00;;;;;;;4.10;2.00;;;;;;;28.61;31.96;100030.00;1728744;81;21139;-66
2021/08/14 11:20:36;;;;;;;2.50;1.80;;;;;;;28.58;32.88;100026.00;1726096;83;21338;-66
2021/08/14 11:23:27;;;;;;;4.15;1.57;;;;;;;28.79;32.38;100025.64;1722329;83;20936;-65
2021/08/14 11:25:54;;;;;;;1.65;1.40;;;;;;;28.80;31.65;100026.43;1723679;82;20921;-66